createdAt,value
2022-08-11T00:01:56.027Z,19.40
2022-08-11T00:04:25.948Z,19.36
2022-08-11T00:06:53.516Z,19.29
2022-08-11T00:09:22.576Z,19.18
2022-08-11T00:11:52.105Z,19.11
2022-08-11T00:14:21.919Z,19.03
2022-08-11T00:17:11.615Z,18.97
2022-08-11T00:20:14.945Z,18.90
2022-08-11T00:22:33.906Z,18.81
2022-08-11T00:25:10.028Z,18.73
2022-08-11T00:27:41.592Z,18.68
2022-08-11T00:30:10.421Z,18.57
2022-08-11T00:32:45.219Z,18.53
2022-08-11T00:35:55.898Z,18.48
2022-08-11T00:38:06.624Z,18.41
2022-08-11T00:41:09.126Z,18.41
2022-08-11T00:43:51.703Z,18.35
2022-08-11T00:46:35.330Z,18.36
2022-08-11T00:49:29.635Z,18.37
2022-08-11T00:52:10.146Z,18.37
2022-08-11T00:54:42.592Z,18.45
2022-08-11T00:57:37.531Z,18.38
2022-08-11T01:00:15.999Z,18.29
2022-08-11T01:03:20.516Z,18.21
2022-08-11T01:06:12.059Z,18.16
2022-08-11T01:08:57.110Z,18.09
2022-08-11T01:11:59.772Z,18.04
2022-08-11T01:14:40.260Z,18.01
2022-08-11T01:17:29.734Z,17.94
2022-08-11T01:20:46.540Z,17.89
2022-08-11T01:23:33.640Z,17.76
2022-08-11T01:26:37.891Z,17.69
2022-08-11T01:29:42.058Z,17.64
2022-08-11T01:32:40.467Z,17.67
2022-08-11T01:35:22.180Z,17.60
2022-08-11T01:38:21.080Z,17.53
2022-08-11T01:41:03.025Z,17.55
2022-08-11T01:44:23.779Z,17.53
2022-08-11T01:47:52.538Z,17.39
2022-08-11T01:50:23.420Z,17.33
2022-08-11T01:53:15.976Z,17.27
2022-08-11T01:56:08.917Z,17.23
2022-08-11T01:59:15.906Z,17.14
2022-08-11T02:02:23.771Z,17.14
2022-08-11T02:05:03.250Z,17.14
2022-08-11T02:07:58.724Z,17.12
2022-08-11T02:11:08.170Z,17.08
2022-08-11T02:14:23.328Z,17.02
2022-08-11T02:17:08.954Z,17.15
2022-08-11T02:20:22.326Z,17.14
2022-08-11T02:23:13.344Z,16.99
2022-08-11T02:26:05.547Z,16.85
2022-08-11T02:28:57.395Z,16.77
2022-08-11T02:32:25.881Z,16.73
2022-08-11T02:34:59.546Z,16.69
2022-08-11T02:37:34.279Z,16.73
2022-08-11T02:40:28.027Z,16.68
2022-08-11T02:43:13.233Z,16.64
2022-08-11T02:46:18.291Z,16.63
2022-08-11T02:49:20.866Z,16.61
2022-08-11T02:52:19.542Z,16.63
2022-08-11T02:54:58.146Z,16.54
2022-08-11T02:57:39.212Z,16.58
2022-08-11T03:00:08.325Z,16.50
2022-08-11T03:02:49.134Z,16.52
2022-08-11T03:05:20.257Z,16.45
2022-08-11T03:08:11.456Z,16.40
2022-08-11T03:11:33.360Z,16.35
2022-08-11T03:14:28.310Z,16.39
2022-08-11T03:17:26.212Z,16.43
2022-08-11T03:20:11.230Z,16.46
2022-08-11T03:22:50.284Z,16.39
2022-08-11T03:25:34.719Z,16.37
2022-08-11T03:28:21.133Z,16.42
2022-08-11T03:31:23.091Z,16.41
2022-08-11T03:34:09.023Z,16.34
2022-08-11T03:37:37.189Z,16.25
2022-08-11T03:40:08.078Z,16.22
2022-08-11T03:42:50.507Z,16.20
2022-08-11T03:45:24.122Z,16.21
2022-08-11T03:48:18.808Z,16.16
2022-08-11T03:51:01.047Z,16.20
2022-08-11T03:53:56.348Z,16.18
2022-08-11T03:56:46.795Z,16.12
2022-08-11T03:59:32.710Z,16.12
2022-08-11T04:02:17.960Z,16.12
2022-08-11T04:05:18.053Z,16.11
2022-08-11T04:08:06.365Z,16.07
2022-08-11T04:11:03.624Z,16.05
2022-08-11T04:13:45.306Z,16.08
2022-08-11T04:16:44.511Z,16.01
2022-08-11T04:19:42.115Z,15.98
2022-08-11T04:22:28.207Z,15.96
2022-08-11T04:25:24.526Z,15.94
2022-08-11T04:31:51.857Z,15.88
2022-08-11T04:34:43.130Z,15.93
2022-08-11T04:37:30.771Z,15.94
2022-08-11T04:40:08.526Z,16.02
2022-08-11T04:43:21.933Z,16.03
2022-08-11T04:46:06.723Z,16.06
2022-08-11T04:56:07.496Z,16.26
2022-08-11T04:59:34.628Z,16.24
2022-08-11T05:02:46.220Z,16.26
2022-08-11T05:05:56.538Z,16.29
2022-08-11T05:09:03.555Z,16.35
2022-08-11T05:12:06.307Z,16.33
2022-08-11T05:19:05.584Z,16.44
2022-08-11T05:22:16.041Z,16.46
2022-08-11T05:28:58.313Z,16.70
2022-08-11T05:31:55.486Z,16.76
2022-08-11T05:34:56.053Z,16.83
2022-08-11T05:37:37.610Z,16.85
2022-08-11T05:40:31.306Z,16.95
2022-08-11T05:43:32.084Z,16.99
2022-08-11T05:46:23.532Z,17.16
2022-08-11T05:49:10.550Z,17.22
2022-08-11T05:52:05.517Z,17.25
2022-08-11T05:55:06.073Z,17.28
2022-08-11T05:57:48.935Z,17.33
2022-08-11T06:00:19.812Z,17.51
2022-08-11T06:02:55.546Z,17.65
2022-08-11T06:05:25.166Z,17.75
2022-08-11T06:07:57.183Z,17.82
2022-08-11T06:10:40.966Z,17.95
2022-08-11T06:13:10.260Z,18.01
2022-08-11T06:15:54.971Z,18.12
2022-08-11T06:18:27.844Z,18.29
2022-08-11T06:21:03.351Z,18.41
2022-08-11T06:23:35.984Z,18.70
2022-08-11T06:26:11.681Z,18.95
2022-08-11T06:28:40.684Z,19.24
2022-08-11T06:31:17.613Z,19.58
2022-08-11T06:33:50.589Z,19.83
2022-08-11T06:36:28.284Z,20.16
2022-08-11T06:39:06.810Z,20.36
2022-08-11T06:41:47.408Z,20.67
2022-08-11T06:44:14.124Z,20.79
2022-08-11T06:47:14.772Z,20.91
2022-08-11T06:50:07.729Z,21.05
2022-08-11T06:52:59.354Z,21.28
2022-08-11T06:55:57.349Z,21.44
2022-08-11T06:58:58.853Z,21.59
2022-08-11T07:01:51.575Z,21.79
2022-08-11T07:04:33.115Z,22.02
2022-08-11T07:07:50.763Z,22.20
2022-08-11T07:11:19.521Z,22.37
2022-08-11T07:14:05.925Z,22.49
2022-08-11T07:16:52.515Z,22.62
2022-08-11T07:22:00.393Z,22.85
2022-08-11T07:23:29.977Z,23.11
2022-08-11T07:26:19.607Z,23.27
2022-08-11T07:29:12.151Z,23.41
2022-08-11T07:32:00.273Z,23.54
2022-08-11T07:35:05.291Z,23.73
2022-08-11T07:38:01.383Z,23.89
2022-08-11T07:40:39.803Z,24.06
2022-08-11T07:43:07.568Z,24.26
2022-08-11T07:46:04.872Z,24.45
2022-08-11T07:48:58.346Z,24.56
2022-08-11T07:51:45.668Z,24.61
2022-08-11T07:54:16.271Z,24.88
2022-08-11T07:57:09.048Z,24.86
2022-08-11T08:00:04.863Z,25.00
2022-08-11T08:03:11.056Z,25.16
2022-08-11T08:05:57.399Z,25.29
2022-08-11T08:09:51.531Z,25.58
2022-08-11T08:12:57.039Z,25.88
2022-08-11T08:16:04.733Z,25.97
2022-08-11T08:19:06.655Z,25.94
2022-08-11T08:21:51.329Z,26.03
2022-08-11T08:24:33.310Z,26.30
2022-08-11T08:34:07.182Z,26.46
2022-08-11T08:39:28.927Z,26.74
2022-08-11T08:49:04.686Z,26.85
2022-08-11T08:52:01.329Z,26.84
2022-08-11T08:54:53.713Z,27.01
2022-08-11T08:57:44.205Z,27.04
2022-08-11T09:00:23.327Z,26.86
2022-08-11T09:11:52.345Z,27.17
2022-08-11T09:14:56.183Z,27.05
2022-08-11T09:21:44.616Z,27.63
2022-08-11T09:24:43.011Z,27.96
2022-08-11T09:27:50.973Z,27.92
2022-08-11T09:30:41.050Z,28.11
2022-08-11T09:33:16.346Z,28.28
2022-08-11T09:35:45.554Z,28.49
2022-08-11T09:38:46.132Z,28.80
2022-08-11T09:42:00.565Z,28.66
2022-08-11T09:44:48.818Z,28.65
2022-08-11T09:47:36.528Z,28.26
2022-08-11T09:50:31.401Z,28.60
2022-08-11T09:53:36.020Z,28.83
2022-08-11T09:55:58.542Z,28.92
2022-08-11T09:58:43.221Z,29.04
2022-08-11T10:01:29.424Z,28.99
2022-08-11T10:04:55.305Z,29.03
2022-08-11T10:08:22.516Z,28.93
2022-08-11T10:14:35.238Z,29.38
2022-08-11T10:17:09.384Z,29.25
2022-08-11T10:19:40.345Z,29.12
2022-08-11T10:22:35.952Z,29.30
2022-08-11T10:25:25.294Z,29.08
2022-08-11T10:28:28.433Z,29.39
2022-08-11T10:31:57.889Z,29.45
2022-08-11T10:35:19.744Z,29.60
2022-08-11T10:38:09.920Z,29.94
2022-08-11T10:40:46.067Z,30.03
2022-08-11T10:44:01.640Z,30.10
2022-08-11T10:46:52.325Z,30.49
2022-08-11T10:49:27.590Z,30.16
2022-08-11T10:55:17.846Z,30.12
2022-08-11T10:58:14.893Z,30.26
2022-08-11T11:00:44.831Z,30.06
2022-08-11T11:03:27.489Z,30.26
2022-08-11T11:06:28.424Z,30.30
2022-08-11T11:10:16.895Z,30.30
2022-08-11T11:13:13.580Z,30.68
2022-08-11T11:19:29.692Z,30.98
2022-08-11T11:25:36.202Z,30.18
2022-08-11T11:32:04.708Z,30.66
2022-08-11T11:35:34.927Z,30.72
2022-08-11T11:38:41.946Z,30.60
2022-08-11T11:44:44.624Z,30.64
2022-08-11T11:53:47.315Z,31.57
2022-08-11T11:56:18.069Z,31.55
2022-08-11T11:59:04.242Z,31.49
2022-08-11T12:04:51.490Z,31.23
2022-08-11T12:07:43.692Z,31.23
2022-08-11T12:10:10.906Z,31.21
2022-08-11T12:12:59.722Z,31.32
2022-08-11T12:16:32.222Z,31.51
2022-08-11T12:18:25.881Z,31.59
2022-08-11T12:20:59.991Z,31.74
2022-08-11T12:23:48.839Z,31.80
2022-08-11T12:26:38.685Z,31.88
2022-08-11T12:29:26.111Z,32.06
2022-08-11T12:35:21.822Z,32.14
2022-08-11T12:38:29.854Z,32.09
2022-08-11T12:41:52.470Z,31.65
2022-08-11T12:44:53.462Z,31.58
2022-08-11T12:48:57.435Z,31.26
2022-08-11T12:52:01.543Z,31.40
2022-08-11T12:58:20.172Z,31.85
2022-08-11T13:01:38.979Z,31.72
2022-08-11T13:07:50.971Z,31.56
2022-08-11T13:13:55.648Z,31.47
2022-08-11T13:17:08.944Z,31.42
2022-08-11T13:19:52.641Z,31.62
2022-08-11T13:22:32.602Z,31.63
2022-08-11T13:25:35.526Z,31.54
2022-08-11T13:31:15.185Z,31.38
2022-08-11T13:33:46.328Z,31.61
2022-08-11T13:36:22.008Z,31.60
2022-08-11T13:38:57.937Z,31.66
2022-08-11T13:41:43.203Z,31.76
2022-08-11T13:44:42.553Z,31.92
2022-08-11T13:47:41.873Z,31.61
2022-08-11T13:50:20.202Z,31.52
2022-08-11T13:52:59.610Z,31.50
2022-08-11T13:55:52.675Z,31.62
2022-08-11T13:58:53.998Z,31.82
2022-08-11T14:05:03.353Z,32.13
2022-08-11T14:12:20.520Z,31.72
2022-08-11T14:14:12.203Z,31.68
2022-08-11T14:17:00.173Z,31.60
2022-08-11T14:19:45.823Z,31.61
2022-08-11T14:26:10.493Z,31.21
2022-08-11T14:28:46.697Z,31.48
2022-08-11T14:31:23.327Z,31.66
2022-08-11T14:34:02.038Z,32.03
2022-08-11T14:36:54.887Z,32.10
2022-08-11T14:39:27.869Z,31.93
2022-08-11T14:42:32.253Z,31.85
2022-08-11T14:45:54.311Z,31.73
2022-08-11T14:48:25.277Z,31.78
2022-08-11T14:50:53.473Z,31.68
2022-08-11T14:53:58.455Z,31.71
2022-08-11T14:56:47.283Z,32.02
2022-08-11T14:59:17.536Z,32.23
2022-08-11T15:02:27.303Z,32.34
2022-08-11T15:04:59.012Z,32.40
2022-08-11T15:07:41.577Z,31.98
2022-08-11T15:10:51.761Z,31.80
2022-08-11T15:13:27.524Z,31.65
2022-08-11T15:22:00.661Z,31.89
2022-08-11T15:31:35.093Z,32.58
2022-08-11T15:35:14.890Z,34.99
2022-08-11T15:37:59.856Z,36.57
2022-08-11T15:40:49.618Z,37.97
2022-08-11T15:47:42.179Z,39.70
2022-08-11T15:50:31.504Z,39.39
2022-08-11T15:53:18.749Z,39.92
2022-08-11T15:55:59.013Z,39.58
2022-08-11T15:59:10.567Z,40.11
2022-08-11T16:02:05.037Z,40.09
2022-08-11T16:05:08.883Z,40.17
2022-08-11T16:08:03.242Z,40.75
2022-08-11T16:10:45.088Z,40.92
2022-08-11T16:27:03.990Z,40.99
2022-08-11T16:27:48.500Z,40.86
2022-08-11T16:30:21.988Z,39.36
2022-08-11T16:32:56.518Z,36.97
2022-08-11T16:36:08.074Z,34.69
2022-08-11T16:38:59.909Z,33.78
2022-08-11T16:41:50.235Z,33.13
2022-08-11T16:44:53.969Z,32.40
2022-08-11T16:48:02.804Z,31.85
2022-08-11T16:54:05.973Z,30.88
2022-08-11T16:56:48.680Z,30.62
2022-08-11T16:59:30.177Z,30.41
2022-08-11T17:02:41.081Z,30.24
2022-08-11T17:05:54.285Z,30.05
2022-08-11T17:08:57.220Z,29.82
2022-08-11T17:11:51.448Z,29.63
2022-08-11T17:14:38.567Z,29.52
2022-08-11T17:17:23.328Z,29.37
2022-08-11T17:20:40.379Z,29.27
2022-08-11T17:23:29.769Z,29.18
2022-08-11T17:26:04.368Z,29.11
2022-08-11T17:29:01.026Z,29.05
2022-08-11T17:39:09.539Z,28.74
2022-08-11T17:46:21.637Z,28.54
2022-08-11T17:49:10.999Z,28.45
2022-08-11T17:55:54.586Z,28.31
2022-08-11T17:59:10.837Z,28.19
2022-08-11T18:02:34.635Z,28.03
2022-08-11T18:05:25.082Z,28.00
2022-08-11T18:08:21.554Z,27.92
2022-08-11T18:12:07.065Z,27.80
2022-08-11T18:14:50.181Z,27.73
2022-08-11T18:17:41.553Z,27.57
2022-08-11T18:20:31.301Z,27.53
2022-08-11T18:23:40.726Z,27.41
2022-08-11T18:26:43.547Z,27.28
2022-08-11T18:29:43.579Z,27.22
2022-08-11T18:32:49.783Z,27.16
2022-08-11T18:35:39.674Z,26.96
2022-08-11T18:38:45.345Z,26.88
2022-08-11T18:41:38.085Z,26.77
2022-08-11T18:44:28.930Z,26.64
2022-08-11T18:47:19.503Z,26.63
2022-08-11T18:51:29.497Z,26.45
2022-08-11T18:53:46.848Z,26.45
2022-08-11T18:56:44.242Z,26.26
2022-08-11T18:59:42.032Z,26.10
2022-08-11T19:02:48.448Z,26.06
2022-08-11T19:06:32.115Z,26.06
2022-08-11T19:09:05.578Z,25.99
2022-08-11T19:11:53.440Z,25.82
2022-08-11T19:14:43.424Z,25.63
2022-08-11T19:21:14.220Z,25.60
2022-08-11T19:24:07.298Z,25.54
2022-08-11T19:27:01.276Z,25.42
2022-08-11T19:30:12.228Z,25.36
2022-08-11T19:33:02.680Z,25.24
2022-08-11T19:35:53.953Z,25.06
2022-08-11T19:38:47.113Z,25.02
2022-08-11T19:41:56.346Z,24.84
2022-08-11T19:44:49.000Z,24.75
2022-08-11T19:47:41.307Z,24.65
2022-08-11T19:50:27.170Z,24.67
2022-08-11T19:53:23.154Z,24.63
2022-08-11T19:56:38.893Z,24.62
2022-08-11T20:02:25.402Z,24.24
2022-08-11T20:05:14.513Z,24.26
2022-08-11T20:08:11.415Z,24.08
2022-08-11T20:11:10.517Z,23.99
2022-08-11T20:14:15.699Z,23.84
2022-08-11T20:17:13.520Z,23.67
2022-08-11T20:20:11.011Z,23.60
2022-08-11T20:23:06.492Z,23.50
2022-08-11T20:26:13.956Z,23.43
2022-08-11T20:29:04.823Z,23.43
2022-08-11T20:31:53.469Z,23.37
2022-08-11T20:35:08.436Z,23.28
2022-08-11T20:37:54.566Z,23.26
2022-08-11T20:40:55.105Z,23.12
2022-08-11T20:44:06.465Z,23.13
2022-08-11T20:47:06.125Z,23.02
2022-08-11T20:50:19.452Z,23.02
2022-08-11T20:56:28.454Z,22.83
2022-08-11T20:59:21.875Z,22.82
2022-08-11T21:02:21.149Z,22.75
2022-08-11T21:06:10.122Z,22.67
2022-08-11T21:08:46.899Z,22.57
2022-08-11T21:11:33.899Z,22.61
2022-08-11T21:14:30.291Z,22.61
2022-08-11T21:17:27.532Z,22.58
2022-08-11T21:27:01.548Z,22.42
2022-08-11T21:30:00.228Z,22.29
2022-08-11T21:32:49.160Z,22.29
2022-08-11T21:35:37.495Z,22.26
2022-08-11T21:38:31.736Z,22.18
2022-08-11T21:41:30.420Z,22.17
2022-08-11T21:44:27.087Z,22.12
2022-08-11T21:47:15.589Z,22.03
2022-08-11T21:50:09.619Z,22.08
2022-08-11T21:53:00.956Z,21.96
2022-08-11T21:55:47.093Z,21.87
2022-08-11T21:58:34.840Z,21.87
2022-08-11T22:01:20.235Z,21.83
2022-08-11T22:04:21.023Z,21.73
2022-08-11T22:07:11.825Z,21.77
2022-08-11T22:09:58.397Z,21.73
2022-08-11T22:12:45.440Z,21.66
2022-08-11T22:15:31.605Z,21.57
2022-08-11T22:18:20.152Z,21.60
2022-08-11T22:21:07.410Z,21.56
2022-08-11T22:24:03.135Z,21.56
2022-08-11T22:26:57.045Z,21.48
2022-08-11T22:29:51.301Z,21.43
2022-08-11T22:32:42.059Z,21.34
2022-08-11T22:35:29.756Z,21.29
2022-08-11T22:38:17.689Z,21.21
2022-08-11T22:41:06.463Z,21.13
2022-08-11T22:43:55.145Z,21.15
2022-08-11T22:46:43.375Z,21.10
2022-08-11T22:49:42.581Z,21.02
2022-08-11T22:52:43.344Z,21.03
2022-08-11T22:55:31.578Z,21.00
2022-08-11T22:58:36.793Z,20.92
2022-08-11T23:01:23.014Z,20.95
2022-08-11T23:04:08.804Z,20.92
2022-08-11T23:07:01.045Z,20.83
2022-08-11T23:09:46.847Z,20.79
2022-08-11T23:12:38.581Z,20.80
2022-08-11T23:15:28.031Z,20.79
2022-08-11T23:18:17.397Z,20.72
2022-08-11T23:21:04.259Z,20.66
2022-08-11T23:23:51.308Z,20.60
2022-08-11T23:26:43.344Z,20.52
2022-08-11T23:29:33.139Z,20.38
2022-08-11T23:32:28.739Z,20.25
2022-08-11T23:35:38.476Z,20.26
2022-08-11T23:38:38.012Z,20.19
2022-08-11T23:41:25.718Z,20.18
2022-08-11T23:44:19.034Z,20.20
2022-08-11T23:47:07.653Z,20.15
2022-08-11T23:50:06.970Z,20.19
2022-08-11T23:52:54.013Z,20.18
2022-08-11T23:55:40.573Z,20.20
2022-08-11T23:58:26.842Z,20.09
